createdAt,value
2023-01-09T00:02:24.982Z,94.85
2023-01-09T00:05:27.821Z,94.25
2023-01-09T00:08:30.459Z,94.71
2023-01-09T00:11:33.671Z,94.03
2023-01-09T00:14:37.662Z,94.05
2023-01-09T00:17:40.574Z,93.10
2023-01-09T00:20:43.279Z,92.32
2023-01-09T00:23:46.123Z,92.70
2023-01-09T00:26:48.846Z,93.36
2023-01-09T00:29:52.864Z,93.67
2023-01-09T00:32:56.380Z,93.94
2023-01-09T00:35:59.138Z,94.28
2023-01-09T00:39:01.952Z,95.01
2023-01-09T00:42:06.059Z,95.04
2023-01-09T00:45:14.355Z,95.58
2023-01-09T00:48:24.997Z,95.45
2023-01-09T00:51:27.927Z,94.68
2023-01-09T00:54:31.825Z,94.35
2023-01-09T00:57:34.529Z,94.19
2023-01-09T01:00:38.944Z,93.57
2023-01-09T01:03:41.888Z,92.96
2023-01-09T01:07:01.966Z,92.24
2023-01-09T01:10:05.082Z,91.43
2023-01-09T01:13:08.303Z,91.42
2023-01-09T01:16:14.211Z,91.17
2023-01-09T01:19:16.871Z,91.13
2023-01-09T01:22:19.716Z,90.69
2023-01-09T01:25:23.016Z,90.45
2023-01-09T01:28:25.796Z,89.87
2023-01-09T01:31:29.811Z,90.40
2023-01-09T01:34:32.534Z,90.16
2023-01-09T01:37:35.599Z,90.23
2023-01-09T01:40:40.265Z,90.43
2023-01-09T01:43:50.715Z,90.52
2023-01-09T01:46:57.040Z,90.14
2023-01-09T01:50:00.692Z,90.36
2023-01-09T01:53:10.508Z,90.12
2023-01-09T01:56:17.993Z,89.66
2023-01-09T01:59:25.173Z,89.98
2023-01-09T02:02:32.124Z,90.22
2023-01-09T02:05:36.058Z,89.25
2023-01-09T02:08:38.878Z,89.48
2023-01-09T02:11:45.502Z,89.85
2023-01-09T02:14:49.588Z,90.38
2023-01-09T02:18:16.555Z,90.83
2023-01-09T02:21:27.966Z,90.17
2023-01-09T02:24:51.859Z,90.91
2023-01-09T02:28:18.155Z,90.86
2023-01-09T02:31:29.459Z,91.50
2023-01-09T02:34:40.675Z,91.67
2023-01-09T02:37:51.053Z,91.21
2023-01-09T02:40:59.270Z,90.49
2023-01-09T02:44:28.093Z,89.93
2023-01-09T02:47:41.331Z,88.59
2023-01-09T02:50:51.945Z,88.38
2023-01-09T02:54:21.967Z,88.87
2023-01-09T02:57:41.871Z,87.81
2023-01-09T03:00:57.293Z,88.36
2023-01-09T03:04:10.491Z,88.59
2023-01-09T03:07:22.218Z,87.79
2023-01-09T03:10:33.198Z,87.28
2023-01-09T03:13:42.807Z,86.83
2023-01-09T03:16:49.374Z,87.32
2023-01-09T03:19:55.376Z,86.88
2023-01-09T03:23:00.294Z,87.26
2023-01-09T03:26:02.987Z,86.50
2023-01-09T03:29:05.855Z,86.17
2023-01-09T03:32:08.532Z,87.13
2023-01-09T03:35:12.578Z,86.98
2023-01-09T03:38:18.061Z,87.17
2023-01-09T03:41:21.254Z,87.73
2023-01-09T03:44:24.084Z,88.06
2023-01-09T03:47:26.804Z,87.64
2023-01-09T03:50:30.920Z,87.70
2023-01-09T03:53:33.640Z,88.53
2023-01-09T03:56:36.334Z,90.16
2023-01-09T03:59:39.289Z,89.86
2023-01-09T04:02:42.481Z,91.00
2023-01-09T04:05:47.834Z,87.99
2023-01-09T04:08:50.537Z,84.80
2023-01-09T04:11:53.215Z,84.14
2023-01-09T04:14:55.959Z,85.17
2023-01-09T04:17:58.657Z,86.89
2023-01-09T04:21:02.711Z,87.25
2023-01-09T04:24:06.290Z,88.62
2023-01-09T04:27:08.935Z,88.45
2023-01-09T04:30:12.926Z,87.63
2023-01-09T04:33:15.606Z,87.84
2023-01-09T04:36:19.813Z,85.74
2023-01-09T04:39:23.017Z,85.28
2023-01-09T04:42:25.770Z,84.95
2023-01-09T04:45:28.519Z,83.79
2023-01-09T04:48:31.187Z,84.41
2023-01-09T04:51:35.316Z,84.71
2023-01-09T04:54:39.480Z,84.35
2023-01-09T04:57:42.157Z,84.27
2023-01-09T05:00:44.883Z,85.17
2023-01-09T05:03:47.697Z,84.26
2023-01-09T05:06:51.878Z,83.55
2023-01-09T05:09:54.486Z,83.47
2023-01-09T05:12:57.124Z,82.23
2023-01-09T05:15:59.790Z,82.92
2023-01-09T05:19:02.561Z,82.44
2023-01-09T05:22:06.671Z,82.64
2023-01-09T05:25:10.011Z,83.15
2023-01-09T05:28:12.669Z,82.67
2023-01-09T05:31:15.334Z,83.15
2023-01-09T05:34:18.036Z,82.51
2023-01-09T05:37:22.279Z,81.58
2023-01-09T05:40:32.088Z,81.69
2023-01-09T05:43:35.339Z,80.99
2023-01-09T05:46:38.031Z,80.93
2023-01-09T05:49:40.708Z,80.52
2023-01-09T05:52:44.676Z,80.62
2023-01-09T05:55:47.403Z,80.07
2023-01-09T05:58:50.043Z,77.65
2023-01-09T06:01:54.268Z,78.01
2023-01-09T06:04:57.008Z,78.25
2023-01-09T06:08:01.053Z,77.14
2023-01-09T06:11:03.682Z,76.74
2023-01-09T06:14:06.774Z,76.90
2023-01-09T06:17:10.557Z,76.70
2023-01-09T06:20:13.638Z,76.88
2023-01-09T06:23:17.674Z,77.47
2023-01-09T06:26:20.397Z,76.68
2023-01-09T06:29:22.986Z,75.52
2023-01-09T06:32:25.914Z,77.12
2023-01-09T06:35:28.960Z,76.99
2023-01-09T06:38:33.403Z,78.07
2023-01-09T06:41:37.368Z,77.88
2023-01-09T06:44:41.415Z,78.54
2023-01-09T06:47:44.163Z,77.59
2023-01-09T06:50:48.785Z,77.54
2023-01-09T06:53:52.749Z,77.39
2023-01-09T06:56:55.388Z,77.60
2023-01-09T06:59:58.057Z,77.27
2023-01-09T07:03:01.129Z,77.91
2023-01-09T07:06:04.404Z,77.07
2023-01-09T07:09:08.401Z,78.03
2023-01-09T07:12:11.084Z,77.02
2023-01-09T07:15:14.039Z,77.06
2023-01-09T07:18:16.778Z,77.19
2023-01-09T07:21:19.405Z,77.13
2023-01-09T07:24:23.383Z,77.79
2023-01-09T07:27:26.043Z,77.12
2023-01-09T07:30:29.195Z,76.85
2023-01-09T07:33:32.296Z,77.32
2023-01-09T07:36:34.979Z,76.99
2023-01-09T07:39:39.063Z,76.53
2023-01-09T07:42:41.696Z,75.85
2023-01-09T07:45:44.374Z,75.97
2023-01-09T07:48:46.992Z,76.43
2023-01-09T07:51:49.649Z,76.72
2023-01-09T07:54:53.680Z,76.54
2023-01-09T07:57:56.313Z,76.98
2023-01-09T08:00:59.053Z,77.03
2023-01-09T08:04:01.725Z,76.60
2023-01-09T08:07:04.428Z,77.23
2023-01-09T08:10:10.465Z,76.68
2023-01-09T08:13:13.171Z,77.21
2023-01-09T08:16:16.191Z,76.95
2023-01-09T08:19:18.902Z,76.60
2023-01-09T08:22:21.525Z,77.38
2023-01-09T08:25:25.587Z,76.82
2023-01-09T08:28:28.465Z,77.15
2023-01-09T08:31:31.154Z,75.71
2023-01-09T08:34:33.840Z,76.87
2023-01-09T08:37:37.110Z,76.41
2023-01-09T08:40:41.234Z,77.27
2023-01-09T08:44:01.633Z,76.82
2023-01-09T08:47:07.026Z,76.23
2023-01-09T08:50:10.618Z,75.84
2023-01-09T08:53:13.886Z,75.28
2023-01-09T08:56:18.222Z,75.67
2023-01-09T08:59:20.927Z,74.98
2023-01-09T09:02:23.646Z,74.23
2023-01-09T09:05:28.665Z,75.13
2023-01-09T09:08:31.280Z,75.53
2023-01-09T09:11:35.513Z,74.27
2023-01-09T09:14:55.717Z,74.20
2023-01-09T09:18:00.607Z,74.02
2023-01-09T09:21:03.451Z,74.42
2023-01-09T09:24:06.364Z,73.45
2023-01-09T09:27:10.365Z,73.12
2023-01-09T09:30:14.993Z,72.28
2023-01-09T09:33:17.633Z,71.54
2023-01-09T09:36:20.281Z,71.08
2023-01-09T09:39:22.916Z,70.22
2023-01-09T09:43:01.124Z,67.35
2023-01-09T09:46:10.801Z,65.13
2023-01-09T09:49:19.302Z,64.58
2023-01-09T09:52:31.462Z,63.34
2023-01-09T09:55:36.364Z,64.34
2023-01-09T09:58:42.346Z,65.74
2023-01-09T10:01:51.811Z,66.82
2023-01-09T10:05:00.464Z,67.61
2023-01-09T10:08:15.802Z,68.17
2023-01-09T10:11:24.450Z,69.94
2023-01-09T10:14:29.528Z,70.33
2023-01-09T10:17:45.432Z,69.08
2023-01-09T10:21:00.894Z,69.49
2023-01-09T10:24:20.948Z,69.77
2023-01-09T10:27:34.460Z,69.81
2023-01-09T10:30:45.251Z,69.07
2023-01-09T10:33:55.700Z,69.02
2023-01-09T10:37:06.871Z,68.98
2023-01-09T10:40:20.523Z,68.62
2023-01-09T10:43:30.571Z,68.43
2023-01-09T10:46:41.924Z,69.41
2023-01-09T10:49:46.403Z,69.56
2023-01-09T10:52:51.273Z,69.85
2023-01-09T10:55:56.948Z,67.90
2023-01-09T10:58:59.606Z,67.00
2023-01-09T11:02:04.443Z,66.61
2023-01-09T11:05:07.822Z,66.84
2023-01-09T11:08:22.683Z,66.80
2023-01-09T11:11:37.934Z,66.20
2023-01-09T11:14:40.657Z,65.48
2023-01-09T11:17:45.006Z,67.12
2023-01-09T11:20:47.739Z,67.18
2023-01-09T11:23:50.697Z,67.05
2023-01-09T11:26:55.812Z,65.67
2023-01-09T11:30:17.788Z,64.14
2023-01-09T11:33:25.567Z,60.24
2023-01-09T11:36:28.633Z,61.08
2023-01-09T11:39:33.900Z,60.01
2023-01-09T11:42:54.621Z,58.20
2023-01-09T11:46:01.430Z,55.42
2023-01-09T11:49:20.766Z,52.06
2023-01-09T11:52:23.480Z,50.29
2023-01-09T11:55:34.713Z,50.00
2023-01-09T11:58:42.726Z,51.84
2023-01-09T12:02:06.750Z,54.38
2023-01-09T12:05:24.244Z,55.04
2023-01-09T12:08:37.662Z,56.73
2023-01-09T12:11:48.692Z,55.50
2023-01-09T12:15:04.250Z,56.80
2023-01-09T12:18:26.002Z,59.49
2023-01-09T12:21:35.206Z,62.35
2023-01-09T12:25:03.235Z,63.84
2023-01-09T12:28:26.924Z,65.06
2023-01-09T12:31:48.259Z,65.73
2023-01-09T12:34:59.153Z,67.28
2023-01-09T12:38:18.065Z,69.04
2023-01-09T12:41:36.001Z,71.65
2023-01-09T12:45:00.357Z,73.31
2023-01-09T12:48:09.356Z,73.47
2023-01-09T12:51:34.601Z,74.41
2023-01-09T12:54:44.821Z,72.26
2023-01-09T12:57:50.140Z,73.54
2023-01-09T13:00:56.065Z,72.81
2023-01-09T13:04:10.039Z,73.32
2023-01-09T13:07:19.017Z,73.23
2023-01-09T13:10:27.238Z,74.50
2023-01-09T13:13:36.228Z,73.00
2023-01-09T13:16:43.343Z,73.31
2023-01-09T13:19:46.243Z,74.17
2023-01-09T13:22:50.833Z,75.39
2023-01-09T13:25:57.663Z,76.45
2023-01-09T13:29:04.319Z,76.42
2023-01-09T13:32:34.146Z,77.89
2023-01-09T13:35:49.174Z,77.11
2023-01-09T13:38:52.289Z,78.74
2023-01-09T13:42:17.960Z,78.36
2023-01-09T13:45:25.491Z,79.69
2023-01-09T13:48:39.840Z,80.14
2023-01-09T13:51:59.860Z,79.56
2023-01-09T13:55:23.635Z,78.59
2023-01-09T13:58:29.493Z,79.73
2023-01-09T14:01:43.768Z,80.11
2023-01-09T14:04:46.584Z,80.27
2023-01-09T14:07:51.529Z,80.47
2023-01-09T14:10:57.790Z,79.74
2023-01-09T14:14:05.580Z,78.95
2023-01-09T14:17:17.690Z,77.93
2023-01-09T14:20:28.120Z,76.16
2023-01-09T14:23:51.072Z,75.46
2023-01-09T14:26:57.178Z,76.27
2023-01-09T14:30:28.581Z,77.35
2023-01-09T14:33:32.853Z,76.82
2023-01-09T14:36:37.448Z,76.27
2023-01-09T14:39:43.957Z,75.44
2023-01-09T14:42:50.515Z,74.91
2023-01-09T14:46:00.043Z,76.16
2023-01-09T14:49:08.018Z,75.22
2023-01-09T14:52:19.989Z,75.77
2023-01-09T14:55:27.722Z,74.87
2023-01-09T14:58:32.271Z,75.56
2023-01-09T15:01:37.627Z,76.37
2023-01-09T15:04:43.397Z,75.31
2023-01-09T15:07:51.747Z,75.72
2023-01-09T15:10:56.030Z,77.22
2023-01-09T15:14:00.152Z,77.04
2023-01-09T15:17:05.275Z,75.31
2023-01-09T15:20:16.937Z,74.13
2023-01-09T15:23:23.912Z,72.88
2023-01-09T15:26:28.524Z,73.11
2023-01-09T15:29:31.198Z,71.70
2023-01-09T15:32:36.693Z,72.44
2023-01-09T15:35:43.298Z,73.54
2023-01-09T15:38:47.658Z,75.72
2023-01-09T15:42:08.286Z,78.81
2023-01-09T15:45:24.732Z,80.96
2023-01-09T15:48:32.301Z,81.95
2023-01-09T15:51:35.056Z,82.55
2023-01-09T15:54:38.578Z,84.27
2023-01-09T15:57:51.728Z,85.72
2023-01-09T16:00:57.511Z,86.63
2023-01-09T16:04:08.441Z,87.48
2023-01-09T16:07:16.277Z,89.06
2023-01-09T16:10:24.687Z,89.35
2023-01-09T16:13:29.618Z,88.61
2023-01-09T16:16:35.111Z,87.73
2023-01-09T16:19:49.122Z,87.57
2023-01-09T16:22:53.964Z,87.04
2023-01-09T16:26:07.361Z,86.80
2023-01-09T16:29:35.484Z,87.13
2023-01-09T16:32:51.333Z,87.42
2023-01-09T16:35:55.879Z,87.83
2023-01-09T16:39:00.796Z,87.89
2023-01-09T16:42:26.445Z,89.24
2023-01-09T16:45:32.160Z,88.82
2023-01-09T16:48:35.024Z,89.39
2023-01-09T16:51:39.128Z,88.75
2023-01-09T16:54:43.509Z,89.54
2023-01-09T16:57:46.489Z,89.25
2023-01-09T17:00:49.155Z,90.23
2023-01-09T17:03:52.546Z,89.46
2023-01-09T17:06:56.581Z,88.77
2023-01-09T17:09:59.316Z,87.56
2023-01-09T17:13:02.016Z,87.35
2023-01-09T17:16:05.687Z,87.03
2023-01-09T17:19:13.984Z,86.36
2023-01-09T17:22:18.335Z,84.89
2023-01-09T17:25:38.339Z,84.71
2023-01-09T17:28:44.647Z,83.11
2023-01-09T17:31:47.364Z,82.87
2023-01-09T17:34:50.077Z,82.54
2023-01-09T17:37:54.071Z,82.09
2023-01-09T17:40:56.724Z,80.89
2023-01-09T17:44:00.536Z,80.43
2023-01-09T17:47:03.175Z,80.14
2023-01-09T17:50:07.395Z,80.72
2023-01-09T17:53:11.601Z,81.17
2023-01-09T17:56:18.370Z,80.72
2023-01-09T17:59:21.060Z,80.92
2023-01-09T18:02:23.921Z,81.09
2023-01-09T18:05:27.617Z,80.97
2023-01-09T18:08:31.743Z,80.72
2023-01-09T18:11:35.275Z,80.84
2023-01-09T18:14:39.036Z,80.44
2023-01-09T18:17:41.856Z,80.82
2023-01-09T18:20:45.544Z,81.33
2023-01-09T18:23:50.223Z,81.64
2023-01-09T18:26:53.532Z,81.74
2023-01-09T18:29:56.824Z,82.46
2023-01-09T18:33:00.013Z,83.11
2023-01-09T18:36:07.104Z,83.62
2023-01-09T18:39:12.810Z,84.86
2023-01-09T18:42:15.879Z,85.08
2023-01-09T18:45:18.770Z,86.10
2023-01-09T18:48:21.498Z,85.66
2023-01-09T18:51:26.011Z,86.32
2023-01-09T18:54:30.010Z,86.25
2023-01-09T18:57:32.801Z,86.21
2023-01-09T19:00:36.619Z,86.26
2023-01-09T19:03:39.322Z,85.63
2023-01-09T19:06:42.042Z,84.98
2023-01-09T19:09:46.473Z,85.55
2023-01-09T19:12:49.155Z,84.01
2023-01-09T19:15:54.849Z,84.90
2023-01-09T19:18:58.208Z,84.81
2023-01-09T19:22:00.853Z,85.56
2023-01-09T19:25:05.368Z,85.49
2023-01-09T19:28:08.186Z,86.22
2023-01-09T19:31:11.006Z,83.78
2023-01-09T19:34:14.464Z,84.71
2023-01-09T19:37:18.312Z,84.12
2023-01-09T19:40:22.442Z,84.66
2023-01-09T19:43:28.263Z,85.90
2023-01-09T19:46:33.460Z,85.14
2023-01-09T19:49:36.180Z,85.45
2023-01-09T19:52:38.923Z,84.49
2023-01-09T19:55:42.930Z,84.69
2023-01-09T19:58:51.000Z,85.31
2023-01-09T20:01:55.160Z,85.70
2023-01-09T20:04:57.890Z,85.79
2023-01-09T20:08:00.554Z,85.33
2023-01-09T20:11:07.320Z,86.24
2023-01-09T20:14:12.458Z,86.23
2023-01-09T20:17:16.529Z,86.35
2023-01-09T20:23:22.440Z,85.39
2023-01-09T20:26:27.604Z,85.75
2023-01-09T20:29:30.559Z,86.59
2023-01-09T20:32:33.775Z,86.84
2023-01-09T20:35:36.697Z,85.80
2023-01-09T20:38:40.561Z,85.57
2023-01-09T20:41:45.233Z,86.49
2023-01-09T20:44:48.406Z,86.50
2023-01-09T20:47:51.507Z,86.64
2023-01-09T20:50:54.143Z,86.06
2023-01-09T20:53:58.239Z,85.52
2023-01-09T20:57:02.285Z,86.73
2023-01-09T21:00:05.849Z,86.74
2023-01-09T21:03:08.497Z,86.97
2023-01-09T21:06:12.979Z,86.91
2023-01-09T21:09:15.657Z,86.45
2023-01-09T21:12:35.594Z,87.03
2023-01-09T21:15:38.990Z,87.29
2023-01-09T21:18:43.253Z,87.44
2023-01-09T21:21:45.927Z,88.24
2023-01-09T21:24:49.912Z,88.05
2023-01-09T21:27:54.264Z,88.98
2023-01-09T21:30:56.953Z,88.60
2023-01-09T21:33:59.692Z,88.82
2023-01-09T21:37:02.445Z,89.22
2023-01-09T21:40:08.553Z,89.53
2023-01-09T21:43:42.971Z,89.82
2023-01-09T21:46:56.052Z,89.85
2023-01-09T21:49:58.898Z,89.60
2023-01-09T21:53:01.543Z,88.62
2023-01-09T21:56:04.656Z,89.03
2023-01-09T21:59:08.825Z,88.83
2023-01-09T22:02:13.028Z,87.70
2023-01-09T22:05:15.838Z,88.74
2023-01-09T22:08:18.546Z,88.78
2023-01-09T22:11:21.228Z,88.94
2023-01-09T22:14:25.373Z,89.27
2023-01-09T22:17:29.182Z,89.62
2023-01-09T22:20:31.823Z,89.00
2023-01-09T22:23:34.538Z,88.96
2023-01-09T22:26:37.204Z,88.98
2023-01-09T22:29:41.302Z,89.79
2023-01-09T22:32:43.887Z,89.33
2023-01-09T22:35:46.521Z,89.64
2023-01-09T22:38:49.116Z,89.82
2023-01-09T22:41:55.001Z,90.09
2023-01-09T22:44:58.975Z,89.09
2023-01-09T22:48:01.617Z,88.68
2023-01-09T22:51:06.114Z,89.78
2023-01-09T22:54:08.788Z,89.00
2023-01-09T22:57:11.469Z,88.81
2023-01-09T23:00:16.467Z,87.33
2023-01-09T23:03:19.176Z,88.05
2023-01-09T23:06:23.091Z,88.04
2023-01-09T23:09:26.552Z,87.40
2023-01-09T23:12:29.229Z,87.65
2023-01-09T23:15:33.367Z,87.16
2023-01-09T23:18:36.103Z,86.36
2023-01-09T23:21:38.729Z,85.89
2023-01-09T23:24:41.411Z,86.10
2023-01-09T23:27:44.101Z,85.83
2023-01-09T23:30:48.960Z,86.60
2023-01-09T23:33:51.677Z,85.59
2023-01-09T23:36:57.429Z,86.44
2023-01-09T23:40:00.247Z,85.18
2023-01-09T23:43:11.760Z,86.87
2023-01-09T23:46:15.812Z,87.45
2023-01-09T23:49:18.676Z,86.67
2023-01-09T23:52:21.359Z,86.88
2023-01-09T23:55:24.036Z,86.67
2023-01-09T23:58:27.374Z,86.14
